Time;durP1;ratioP1;P1;durP2;ratioP2;P2;SDS_P1;SDS_P2;PMS_P1;PMS_P2;Temp;Humidity;BMP_temperature;BMP_pressure;BME280_temperature;BME280_humidity;BME280_pressure;Samples;Min_cycle;Max_cycle;Signal;HPM_P1;HPM_P2
2022/01/24 00:08:00;;;;;;;26.57;14.90;;;;;;;6.65;37.81;101935.50;2071482;94;25577;-80
2022/01/24 00:26:47;;;;;;;21.55;13.20;;;;;;;6.60;37.73;101949.07;2069027;94;25793;-78
2022/01/24 00:30:17;;;;;;;22.15;13.32;;;;;;;6.59;37.72;101947.29;2031757;96;25798;-78
2022/01/24 00:33:43;;;;;;;21.95;13.58;;;;;;;6.59;37.70;101947.69;2031825;97;25703;-78
2022/01/24 00:37:09;;;;;;;24.47;13.53;;;;;;;6.58;37.69;101953.65;2034564;95;25537;-77
2022/01/24 00:40:39;;;;;;;23.45;14.10;;;;;;;6.58;37.66;101962.72;2019337;95;25715;-78
2022/01/24 01:03:00;;;;;;;20.88;12.68;;;;;;;6.58;37.58;101945.51;2101597;90;25541;-79
2022/01/24 01:06:28;;;;;;;23.92;13.90;;;;;;;6.57;37.55;101942.39;2118044;88;25895;-79
2022/01/24 01:22:22;;;;;;;23.85;14.65;;;;;;;6.56;37.50;101936.72;2088917;92;25919;-78
2022/01/24 01:33:16;;;;;;;24.72;15.15;;;;;;;6.57;37.48;101933.73;1983562;99;25748;-78
2022/01/24 01:56:05;;;;;;;27.15;15.38;;;;;;;6.55;37.40;101928.46;2014795;91;25338;-77
2022/01/24 01:59:37;;;;;;;28.12;15.75;;;;;;;6.55;37.40;101942.71;2023424;93;27033;-78
2022/01/24 02:03:15;;;;;;;25.65;14.75;;;;;;;6.52;37.38;101928.27;2014681;92;25702;-79
2022/01/24 02:07:09;;;;;;;28.92;15.63;;;;;;;6.52;37.40;101936.03;2000972;98;25784;-79
2022/01/24 02:10:33;;;;;;;;;;;;;;;6.54;37.41;101937.41;1934617;102;26002;-77
2022/01/24 02:14:17;;;;;;;20.65;13.30;;;;;;;6.54;37.39;101940.00;1967741;99;25614;-78
2022/01/24 02:22:04;;;;;;;24.50;14.78;;;;;;;6.52;37.40;101931.25;1975335;92;25833;-77
2022/01/24 02:25:51;;;;;;;27.67;14.18;;;;;;;6.52;37.40;101939.03;1994347;97;25743;-78
2022/01/24 02:37:24;;;;;;;24.35;13.75;;;;;;;6.47;37.35;101946.48;2148742;87;25613;-78
2022/01/24 02:52:45;;;;;;;28.92;16.17;;;;;;;6.44;37.31;101933.73;2156315;87;25534;-78
2022/01/24 02:56:33;;;;;;;25.15;16.17;;;;;;;6.44;37.32;101946.69;2158808;91;25461;-78
2022/01/24 03:00:45;;;;;;;33.83;18.35;;;;;;;6.44;37.30;101946.69;2106170;92;25781;-77
2022/01/24 03:04:21;;;;;;;28.55;15.85;;;;;;;6.41;37.30;101944.78;2151451;87;25549;-76
2022/01/24 03:08:03;;;;;;;32.73;18.45;;;;;;;6.39;37.32;101939.52;2162751;87;25546;-77
2022/01/24 03:15:00;;;;;;;33.80;17.27;;;;;;;6.37;37.33;101944.09;2045715;94;25607;-77
2022/01/24 03:18:55;;;;;;;32.13;17.80;;;;;;;6.36;37.33;101948.78;2050036;90;25729;-78
2022/01/24 03:22:16;;;;;;;29.63;17.30;;;;;;;6.35;37.33;101935.34;2096516;94;25697;-78
2022/01/24 03:29:54;;;;;;;34.13;17.92;;;;;;;6.20;37.35;101921.37;2088412;91;25674;-78
2022/01/24 03:37:58;;;;;;;31.97;18.12;;;;;;;6.31;37.33;101944.97;2011218;95;25661;-79
2022/01/24 03:41:29;;;;;;;35.45;18.27;;;;;;;6.30;37.34;101946.67;2082539;93;25899;-78
2022/01/24 03:45:03;;;;;;;32.13;19.25;;;;;;;6.28;37.32;101935.73;2074739;94;25739;-78
2022/01/24 03:48:57;;;;;;;30.02;19.27;;;;;;;6.28;37.34;101939.63;2115799;89;25479;-79
2022/01/24 03:52:39;;;;;;;32.17;18.42;;;;;;;6.27;37.35;101930.93;2121815;93;25614;-79
2022/01/24 03:56:18;;;;;;;34.70;19.27;;;;;;;6.25;37.36;101921.29;2086777;94;25713;-80
2022/01/24 04:03:26;;;;;;;38.95;20.45;;;;;;;6.23;37.40;101934.52;2243467;83;25524;-77
2022/01/24 04:07:04;;;;;;;;;;;;;;;6.23;37.45;101933.23;2293569;86;25531;-77
2022/01/24 04:10:24;;;;;;;38.75;19.85;;;;;;;6.23;37.42;101931.94;2231451;87;25843;-79
2022/01/24 04:14:10;;;;;;;34.27;18.85;;;;;;;6.22;37.45;101936.22;2025676;95;25773;-78
2022/01/24 04:18:09;;;;;;;;;;;;;;;;;;;;;
2022/01/24 04:25:03;;;;;;;30.92;18.37;;;;;;;6.21;37.49;101942.20;2008377;97;25636;-78
2022/01/24 04:28:38;;;;;;;34.30;19.48;;;;;;;6.20;37.52;101944.27;2023241;93;25667;-77
2022/01/24 04:32:24;;;;;;;31.82;17.90;;;;;;;6.19;37.55;101942.49;2024225;96;25707;-78
2022/01/24 04:35:52;;;;;;;31.25;18.25;;;;;;;6.19;37.54;101936.02;2026223;96;25755;-78
2022/01/24 04:39:49;;;;;;;35.63;19.50;;;;;;;6.19;37.58;101936.02;2026012;93;25640;-78
2022/01/24 04:51:10;;;;;;;30.30;17.37;;;;;;;6.19;37.61;101942.89;1952158;95;25597;-79
2022/01/24 04:54:51;;;;;;;31.10;16.70;;;;;;;6.20;37.64;101942.09;1939864;100;25804;-78
2022/01/24 04:58:20;;;;;;;30.90;18.25;;;;;;;6.19;37.63;101942.49;1967079;95;25583;-78
2022/01/24 05:02:19;;;;;;;29.72;16.57;;;;;;;6.20;37.64;101939.50;1966032;98;25704;-79
2022/01/24 05:05:53;;;;;;;33.98;17.87;;;;;;;6.20;37.67;101952.45;1995744;95;25667;-78
2022/01/24 05:09:40;;;;;;;29.10;17.32;;;;;;;6.19;37.66;101946.78;1931015;100;25804;-78
2022/01/24 05:24:44;;;;;;;31.52;18.17;;;;;;;6.17;37.67;101962.20;2020918;96;34657;-78
2022/01/24 05:28:11;;;;;;;28.70;16.70;;;;;;;6.15;37.69;101963.41;2021475;90;25707;-78
2022/01/24 05:32:04;;;;;;;31.12;16.87;;;;;;;6.14;37.69;101964.20;2029661;96;25588;-79
2022/01/24 05:35:30;;;;;;;28.92;16.97;;;;;;;6.14;37.72;101952.92;2021632;94;25687;-78
2022/01/24 05:39:32;;;;;;;26.90;15.20;;;;;;;6.12;37.72;101952.84;2019531;97;25575;-79
2022/01/24 05:43:17;;;;;;;28.92;16.32;;;;;;;6.13;37.75;101964.09;2046006;87;26990;-78
2022/01/24 05:47:09;;;;;;;27.62;16.07;;;;;;;6.12;37.77;101963.59;2042106;95;25740;-76
2022/01/24 05:50:26;;;;;;;31.00;16.80;;;;;;;6.11;37.80;101976.05;1946844;101;25517;-78
2022/01/24 05:57:48;;;;;;;29.67;16.02;;;;;;;6.11;37.80;101978.64;1946786;97;25633;-78
2022/01/24 06:01:16;;;;;;;31.73;17.35;;;;;;;6.11;37.83;101983.83;1903794;102;26054;-78
2022/01/24 06:04:45;;;;;;;33.48;17.52;;;;;;;6.10;37.84;101993.66;1923192;102;26443;-80
2022/01/24 06:08:16;;;;;;;28.50;16.50;;;;;;;6.10;37.88;101998.84;1922903;101;25803;-78
2022/01/24 06:11:37;;;;;;;33.25;17.27;;;;;;;6.09;37.92;101987.98;1923445;101;25183;-79
2022/01/24 06:15:23;;;;;;;27.60;16.07;;;;;;;6.08;37.90;101993.57;1923301;102;25797;-78
2022/01/24 06:18:57;;;;;;;27.40;16.25;;;;;;;6.08;37.91;101989.69;1904237;102;25746;-78
2022/01/24 06:22:36;;;;;;;25.30;15.28;;;;;;;6.08;37.89;101993.97;1904268;102;25842;-77
2022/01/24 06:26:09;;;;;;;28.40;16.52;;;;;;;6.07;37.91;101986.58;1907940;101;25684;-78
2022/01/24 06:29:30;;;;;;;39.45;17.05;;;;;;;6.08;37.91;101983.21;1916025;102;25913;-78
2022/01/24 06:33:11;;;;;;;29.70;15.43;;;;;;;6.06;37.92;101978.72;1941768;102;25662;-77
2022/01/24 06:36:37;;;;;;;24.27;14.78;;;;;;;6.06;37.92;101979.61;2025647;92;25570;-76
2022/01/24 06:40:23;;;;;;;30.90;16.87;;;;;;;6.05;37.91;101981.70;2062544;89;25993;-76
2022/01/24 06:43:49;;;;;;;29.12;16.52;;;;;;;6.06;37.93;101967.06;2077333;94;25603;-78
2022/01/24 06:47:30;;;;;;;;;;;;;;;;;;;;;
2022/01/24 06:51:10;;;;;;;;;;;;;;;;;;;;;
2022/01/24 06:58:56;;;;;;;20.90;13.80;;;;;;;6.98;46.33;101966.17;2093536;93;25681;-77
2022/01/24 07:02:22;;;;;;;22.13;14.05;;;;;;;6.87;46.18;101974.98;2059980;94;25652;-75
2022/01/24 07:06:07;;;;;;;24.32;13.18;;;;;;;6.80;46.22;101985.75;2088411;88;25653;-76
2022/01/24 07:09:39;;;;;;;27.20;13.53;;;;;;;6.74;46.13;101987.95;2039815;97;25602;-78
2022/01/24 07:13:21;;;;;;;31.75;15.68;;;;;;;6.69;46.14;101992.84;2039216;96;26352;-78
2022/01/24 07:17:07;;;;;;;26.40;15.23;;;;;;;6.66;46.03;101991.34;2040990;96;25717;-75
2022/01/24 07:20:37;;;;;;;;;;;;;;;;;;;;;
2022/01/24 07:24:05;;;;;;;30.35;15.45;;;;;;;6.58;45.79;101988.27;1951057;100;25687;-79
2022/01/24 07:27:30;;;;;;;28.05;15.95;;;;;;;6.57;45.71;101986.45;1985711;99;25585;-78
2022/01/24 07:31:22;;;;;;;23.27;15.10;;;;;;;6.55;45.43;101991.95;1987212;97;25592;-77
2022/01/24 07:34:59;;;;;;;28.75;15.83;;;;;;;6.56;45.25;101995.03;1848834;106;25609;-76
2022/01/24 07:38:30;;;;;;;28.32;16.12;;;;;;;6.54;44.89;101992.72;1878560;103;25747;-74
2022/01/24 07:41:51;;;;;;;;;;;;;;;6.54;44.58;102004.38;1898602;98;25314;-77
2022/01/24 07:45:28;;;;;;;30.05;15.78;;;;;;;6.54;44.25;102002.19;1925549;101;25589;-76
2022/01/24 07:52:20;;;;;;;32.30;15.72;;;;;;;6.54;43.70;102003.48;1913861;100;25238;-78
2022/01/24 07:56:03;;;;;;;30.72;16.62;;;;;;;6.56;43.44;102000.61;1939497;101;25325;-78
2022/01/24 07:59:27;;;;;;;28.62;15.72;;;;;;;6.59;43.25;102004.70;1942462;100;25597;-77
2022/01/24 08:03:01;;;;;;;27.65;15.20;;;;;;;6.62;42.98;102003.20;1938522;99;25582;-73
2022/01/24 08:06:49;;;;;;;33.05;16.67;;;;;;;6.64;42.82;101999.41;2018902;96;25621;-77
2022/01/24 08:10:28;;;;;;;33.35;17.85;;;;;;;6.67;42.62;102000.02;2050828;92;26309;-76
2022/01/24 08:13:58;;;;;;;35.75;16.20;;;;;;;6.70;42.37;101991.14;2097141;91;25620;-77
2022/01/24 08:17:26;;;;;;;34.60;18.30;;;;;;;6.71;42.16;101987.74;2101787;92;25768;-79
2022/01/24 08:20:53;;;;;;;30.02;17.70;;;;;;;6.73;41.96;101996.53;2173081;88;25767;-76
2022/01/24 08:24:23;;;;;;;32.50;16.82;;;;;;;6.76;41.88;101989.84;2205093;89;25682;-75
2022/01/24 08:28:08;;;;;;;31.82;17.27;;;;;;;6.81;41.73;101986.24;2229088;88;25742;-77
2022/01/24 08:31:32;;;;;;;31.52;16.80;;;;;;;6.84;41.55;101978.66;2239937;85;25184;-78
2022/01/24 08:35:28;;;;;;;30.82;17.95;;;;;;;6.88;41.41;101979.76;2278510;86;25569;-78
2022/01/24 08:39:05;;;;;;;30.27;16.95;;;;;;;6.91;41.27;101983.44;2324055;84;25517;-76
2022/01/24 08:46:10;;;;;;;27.13;16.25;;;;;;;6.98;41.05;101986.92;2215360;86;25496;-79
2022/01/24 08:49:41;;;;;;;32.17;16.80;;;;;;;7.01;40.95;101987.12;2215923;88;25953;-78
2022/01/24 08:53:39;;;;;;;33.88;17.20;;;;;;;7.05;40.84;101985.61;2178861;89;25233;-77
2022/01/24 08:57:21;;;;;;;33.18;18.02;;;;;;;7.09;40.76;101984.62;2176859;90;25599;-80
2022/01/24 09:00:58;;;;;;;32.23;17.02;;;;;;;7.16;40.67;101980.72;2109680;92;25610;-78
2022/01/24 09:04:52;;;;;;;33.30;17.67;;;;;;;7.20;40.56;101981.41;2100734;92;26209;-78
2022/01/24 09:08:31;;;;;;;33.67;17.17;;;;;;;7.26;40.44;101982.20;2077307;91;25755;-79
2022/01/24 09:12:20;;;;;;;30.65;16.73;;;;;;;7.29;40.36;101981.09;2121749;93;25525;-79
2022/01/24 09:16:00;;;;;;;36.35;17.82;;;;;;;7.30;40.24;101973.80;2166131;90;25977;-76
2022/01/24 09:19:30;;;;;;;35.05;17.82;;;;;;;7.32;40.18;101972.19;2186429;90;25904;-79
2022/01/24 09:26:40;;;;;;;37.98;18.98;;;;;;;7.33;40.05;101976.59;2114001;90;25741;-80
2022/01/24 09:30:14;;;;;;;35.65;18.10;;;;;;;7.33;39.97;101982.67;2102096;91;25709;-81
2022/01/24 09:33:48;;;;;;;33.00;17.98;;;;;;;7.34;39.96;101977.97;2213060;88;25649;-80
2022/01/24 09:37:31;;;;;;;29.87;17.75;;;;;;;7.37;39.89;101973.78;2113912;91;25622;-80
2022/01/24 09:41:24;;;;;;;29.25;16.82;;;;;;;7.39;39.83;101977.35;2081883;94;25634;-78
2022/01/24 09:45:12;;;;;;;37.88;17.73;;;;;;;7.41;39.79;101975.36;2152103;91;25516;-80
2022/01/24 09:48:44;;;;;;;39.27;19.48;;;;;;;7.46;39.74;101970.06;2193922;85;25584;-80
2022/01/24 09:52:34;;;;;;;34.38;18.20;;;;;;;7.52;39.67;101970.41;2197568;89;25528;-80
2022/01/24 09:56:20;;;;;;;30.05;17.70;;;;;;;7.58;39.60;101969.90;2173184;90;25742;-79
2022/01/24 09:59:40;;;;;;;31.12;17.73;;;;;;;7.66;39.52;101966.47;2157166;90;25820;-79
2022/01/24 10:03:27;;;;;;;;;;;;;;;;;;;;;
2022/01/24 10:07:16;;;;;;;30.72;17.37;;;;;;;7.86;39.29;101964.66;2329979;82;25709;-78
2022/01/24 10:11:06;;;;;;;30.80;17.45;;;;;;;7.94;39.13;101960.84;2250231;85;25250;-80
2022/01/24 10:18:30;;;;;;;33.18;17.32;;;;;;;8.05;38.98;101958.47;2182305;88;25545;-81
2022/01/24 10:22:02;;;;;;;28.90;18.23;;;;;;;8.08;38.91;101955.58;2181321;88;25851;-81
2022/01/24 10:25:26;;;;;;;27.22;16.32;;;;;;;8.10;38.85;101957.46;2200878;86;25539;-81
2022/01/24 10:28:57;;;;;;;31.00;17.90;;;;;;;8.12;38.83;101947.14;2181022;88;25766;-80
2022/01/24 10:33:02;;;;;;;34.00;15.78;;;;;;;8.16;38.76;101938.72;2195357;84;25654;-81
2022/01/24 10:36:53;;;;;;;29.63;16.40;;;;;;;8.23;38.65;101938.27;2205207;84;26001;-79
2022/01/24 10:40:48;;;;;;;29.75;15.95;;;;;;;8.35;38.52;101931.59;2210518;87;25641;-81
2022/01/24 10:47:47;;;;;;;34.67;17.73;;;;;;;8.57;38.26;101930.72;2133579;86;25381;-82
2022/01/24 10:51:22;;;;;;;30.10;17.00;;;;;;;8.66;38.16;101927.34;2143651;90;25580;-81
2022/01/24 10:55:30;;;;;;;36.35;15.53;;;;;;;8.73;38.02;101928.58;2090658;92;25552;-82
2022/01/24 10:59:18;;;;;;;25.62;16.52;;;;;;;8.77;37.92;101926.64;2085157;93;25524;-79
2022/01/24 11:02:51;;;;;;;23.20;15.35;;;;;;;8.79;37.83;101921.54;2037407;93;25629;-82
2022/01/24 11:06:39;;;;;;;24.70;15.35;;;;;;;8.80;37.76;101917.70;2130639;91;25578;-83
2022/01/24 11:10:07;;;;;;;26.80;15.23;;;;;;;8.83;37.74;101920.89;2112282;90;25510;-80
2022/01/24 11:13:36;;;;;;;25.92;14.53;;;;;;;8.84;37.67;101914.49;2130348;91;25584;-82
2022/01/24 11:17:33;;;;;;;25.70;14.05;;;;;;;8.88;37.65;101898.64;2130207;91;25592;-83
2022/01/24 11:21:15;;;;;;;20.97;13.60;;;;;;;8.91;37.59;101890.60;2129943;92;25858;-80
2022/01/24 11:24:57;;;;;;;;;;;;;;;;;;;;;
2022/01/24 11:28:22;;;;;;;21.90;14.20;;;;;;;8.99;37.46;101882.80;2117859;92;25619;-76
2022/01/24 11:35:56;;;;;;;25.90;14.33;;;;;;;9.07;37.33;101866.28;2127554;90;25629;-79
2022/01/24 11:39:35;;;;;;;22.73;12.53;;;;;;;9.12;37.29;101871.34;2176283;88;25774;-75
2022/01/24 11:42:57;;;;;;;31.07;15.00;;;;;;;9.17;37.16;101862.47;2209731;87;25479;-75
2022/01/24 11:47:22;;;;;;;23.95;15.13;;;;;;;9.25;37.10;101866.39;2170759;88;25926;-76
2022/01/24 11:51:07;;;;;;;23.40;14.65;;;;;;;9.35;37.04;101867.36;2045089;95;25532;-83
2022/01/24 11:55:01;;;;;;;17.10;10.23;;;;;;;9.45;36.95;101859.63;2154172;91;25557;-83
2022/01/24 11:58:34;;;;;;;22.25;12.43;;;;;;;9.63;42.00;101847.53;2176272;88;25550;-79
2022/01/24 12:02:30;;;;;;;24.50;12.40;;;;;;;10.33;42.34;101857.98;2256423;85;25695;-75
2022/01/24 12:06:25;;;;;;;24.30;12.40;;;;;;;10.47;42.15;101854.73;2294193;84;25481;-74
2022/01/24 12:10:16;;;;;;;21.35;13.60;;;;;;;10.44;42.22;101851.97;2355173;81;25426;-74
2022/01/24 12:14:05;;;;;;;24.15;12.65;;;;;;;10.36;42.11;101851.63;2355826;84;25473;-74
2022/01/24 12:17:54;;;;;;;19.82;12.00;;;;;;;10.26;41.94;101851.08;2355868;84;25584;-76
2022/01/24 12:21:27;;;;;;;20.37;12.93;;;;;;;10.16;41.63;101840.20;2269420;82;25496;-75
2022/01/24 12:24:48;;;;;;;27.10;14.10;;;;;;;10.08;41.39;101841.93;2375571;83;25657;-75
2022/01/24 12:28:31;;;;;;;24.70;12.95;;;;;;;10.03;41.17;101840.83;2373798;83;25502;-75
2022/01/24 12:32:03;;;;;;;24.45;11.35;;;;;;;9.98;41.00;101831.88;2272456;84;25538;-74
2022/01/24 12:38:56;;;;;;;24.70;13.20;;;;;;;9.91;40.57;101830.67;2218258;88;25802;-77
2022/01/24 12:42:53;;;;;;;25.90;13.38;;;;;;;9.88;40.37;101827.50;2224979;86;25545;-75
2022/01/24 12:50:17;;;;;;;27.45;13.65;;;;;;;9.83;39.99;101817.28;2183742;85;25839;-75
2022/01/24 12:53:48;;;;;;;19.90;12.37;;;;;;;9.77;39.86;101813.48;2253359;87;25600;-75
2022/01/24 12:57:39;;;;;;;22.62;12.13;;;;;;;9.70;39.77;101819.68;2326988;83;25787;-75
2022/01/24 13:01:41;;;;;;;22.62;12.25;;;;;;;9.65;39.67;101816.34;2317354;83;25551;-75
2022/01/24 13:05:28;;;;;;;20.50;11.68;;;;;;;9.57;39.61;101814.67;2295269;84;25553;-74
2022/01/24 13:09:27;;;;;;;20.88;12.28;;;;;;;9.50;39.58;101815.59;2292910;86;25166;-74
2022/01/24 13:13:12;;;;;;;20.32;12.55;;;;;;;9.42;39.54;101808.29;2290603;86;25679;-74
2022/01/24 13:21:25;;;;;;;17.17;10.18;;;;;;;9.29;39.55;101800.67;2218155;87;25576;-74
2022/01/24 13:24:41;;;;;;;21.37;11.43;;;;;;;9.34;41.22;101807.39;2253929;87;25682;-75
2022/01/24 13:28:17;;;;;;;16.10;11.93;;;;;;;9.35;41.44;101807.49;2289378;82;25534;-78
2022/01/24 13:32:05;;;;;;;24.67;12.57;;;;;;;9.32;41.17;101805.14;2289480;82;25485;-82
2022/01/24 13:35:52;;;;;;;26.73;12.25;;;;;;;9.25;41.11;101797.42;2277237;86;25438;-80
2022/01/24 13:40:22;;;;;;;18.23;11.22;;;;;;;9.19;41.11;101802.31;2260854;86;25756;-81
2022/01/24 13:44:00;;;;;;;23.67;11.97;;;;;;;9.12;41.03;101784.59;2272683;85;25571;-79
2022/01/24 13:47:25;;;;;;;19.65;12.10;;;;;;;9.06;40.93;101788.17;2162666;90;25741;-78
2022/01/24 13:51:00;;;;;;;23.47;11.90;;;;;;;8.99;40.86;101786.95;2158249;91;25691;-80
2022/01/24 13:54:28;;;;;;;28.27;13.15;;;;;;;8.94;40.82;101786.73;2158448;90;25698;-77
2022/01/24 13:57:55;;;;;;;17.77;11.73;;;;;;;8.91;40.77;101781.73;2164806;89;25670;-78
2022/01/24 14:01:18;;;;;;;20.88;12.10;;;;;;;8.85;40.68;101786.23;2189986;87;25796;-77
2022/01/24 14:05:13;;;;;;;22.75;13.30;;;;;;;8.81;40.63;101789.49;2202170;87;25772;-79
2022/01/24 14:08:54;;;;;;;23.85;13.50;;;;;;;8.77;40.55;101791.41;2208810;85;25630;-77
2022/01/24 14:13:01;;;;;;;27.25;14.28;;;;;;;8.72;40.45;101804.59;2323805;80;25879;-78
2022/01/24 14:16:51;;;;;;;27.58;14.07;;;;;;;8.66;40.39;101800.36;2292058;85;25510;-80
2022/01/24 14:20:37;;;;;;;28.92;13.18;;;;;;;8.61;40.33;101797.93;2286600;85;25453;-75
2022/01/24 14:24:28;;;;;;;19.20;12.70;;;;;;;8.56;40.28;101803.27;2272711;86;25481;-77
2022/01/24 14:28:07;;;;;;;20.82;12.07;;;;;;;8.51;40.29;101793.94;2290115;83;25032;-75
2022/01/24 14:31:52;;;;;;;21.62;12.58;;;;;;;8.61;42.51;101786.23;2334157;83;25546;-78
2022/01/24 14:35:59;;;;;;;24.95;13.20;;;;;;;8.67;42.17;101787.84;2427598;80;25422;-73
2022/01/24 14:47:39;;;;;;;22.62;13.75;;;;;;;8.53;41.99;101792.70;2218676;88;25442;-76
2022/01/24 14:51:23;;;;;;;21.27;12.35;;;;;;;8.46;41.99;101791.47;2260013;80;25528;-77
2022/01/24 14:54:42;;;;;;;20.85;13.53;;;;;;;8.42;41.88;101780.42;2264096;87;25597;-78
2022/01/24 14:58:34;;;;;;;24.15;13.53;;;;;;;8.37;41.83;101790.55;2268511;85;25550;-75
2022/01/24 15:02:04;;;;;;;23.95;13.75;;;;;;;8.32;41.76;101782.89;2215496;83;25689;-73
2022/01/24 15:05:25;;;;;;;27.17;13.93;;;;;;;8.27;41.65;101785.66;2267242;85;25661;-75
2022/01/24 15:08:52;;;;;;;32.48;16.23;;;;;;;8.23;41.59;101773.28;2263170;85;25710;-73
2022/01/24 15:12:42;;;;;;;30.75;15.18;;;;;;;8.23;43.28;101777.17;2267003;87;25507;-78
2022/01/24 15:16:26;;;;;;;28.35;15.45;;;;;;;8.31;43.58;101776.32;2342472;83;25549;-75
2022/01/24 15:31:06;;;;;;;35.28;16.07;;;;;;;8.06;43.13;101774.94;2379189;80;25704;-75
2022/01/24 15:38:25;;;;;;;30.00;15.63;;;;;;;7.97;42.79;101761.05;2388018;81;25964;-74
2022/01/24 15:42:04;;;;;;;33.23;16.05;;;;;;;7.94;42.64;101766.48;2366339;81;25615;-74
2022/01/24 15:49:44;;;;;;;27.55;15.13;;;;;;;7.88;42.41;101766.13;2176010;88;25694;-72
2022/01/24 15:53:10;;;;;;;32.63;15.88;;;;;;;7.84;42.24;101764.17;2231713;83;25578;-78
2022/01/24 16:00:42;;;;;;;28.47;15.40;;;;;;;7.79;42.14;101766.48;2446119;80;25442;-77
2022/01/24 16:04:06;;;;;;;31.17;16.55;;;;;;;7.75;42.02;101767.12;2439983;80;25422;-81
2022/01/24 16:07:46;;;;;;;26.23;15.03;;;;;;;7.73;41.98;101764.86;2426133;81;25452;-81
2022/01/24 16:11:23;;;;;;;64.62;32.67;;;;;;;7.71;41.89;101759.97;2432801;81;25659;-76
2022/01/24 16:15:02;;;;;;;48.55;28.95;;;;;;;7.85;44.79;101759.45;2427941;81;25468;-79
2022/01/24 16:18:27;;;;;;;48.17;26.48;;;;;;;7.91;44.86;101758.52;2313638;84;25643;-79
2022/01/24 16:22:42;;;;;;;49.00;25.03;;;;;;;7.92;44.76;101749.49;2340265;84;25777;-74
2022/01/24 16:25:52;;;;;;;47.53;24.67;;;;;;;7.90;44.66;101756.33;2320581;84;25724;-79
2022/01/24 16:29:21;;;;;;;38.33;23.10;;;;;;;7.88;44.54;101750.55;2382585;81;25258;-80
2022/01/24 16:33:14;;;;;;;47.33;23.27;;;;;;;7.85;44.36;101742.17;2373819;82;25500;-74
2022/01/24 16:36:42;;;;;;;42.30;23.17;;;;;;;7.85;44.19;101741.28;2358880;79;25569;-76
2022/01/24 16:40:11;;;;;;;40.92;23.00;;;;;;;7.81;44.02;101731.13;2331608;83;25476;-74
2022/01/24 16:47:10;;;;;;;37.53;21.50;;;;;;;7.77;43.72;101730.48;2333785;84;25495;-74
2022/01/24 16:50:33;;;;;;;35.70;21.07;;;;;;;7.75;43.66;101730.78;2345485;83;25493;-75
2022/01/24 16:53:59;;;;;;;35.13;20.43;;;;;;;7.73;43.50;101725.52;2329529;84;25575;-74
2022/01/24 16:57:21;;;;;;;30.37;18.37;;;;;;;7.71;43.38;101723.22;2342943;84;25773;-78
2022/01/24 17:00:51;;;;;;;35.40;20.00;;;;;;;7.69;43.30;101718.33;2347229;82;25478;-76
2022/01/24 17:04:14;;;;;;;36.00;19.92;;;;;;;7.68;43.23;101711.77;2328281;83;25571;-73
2022/01/24 17:07:35;;;;;;;30.48;18.73;;;;;;;7.66;43.12;101709.11;2288674;85;25610;-73
2022/01/24 17:10:58;;;;;;;38.73;20.23;;;;;;;7.65;43.04;101712.89;2305273;85;25514;-72
2022/01/24 17:14:22;;;;;;;35.83;18.57;;;;;;;7.65;43.02;101712.89;2305335;84;25856;-76
2022/01/24 17:17:49;;;;;;;40.67;18.80;;;;;;;7.64;42.98;101717.20;2289331;85;25552;-73
2022/01/24 17:21:15;;;;;;;37.38;18.73;;;;;;;7.64;42.91;101713.72;2304814;84;25440;-73
2022/01/24 17:24:38;;;;;;;35.90;19.30;;;;;;;7.63;42.87;101709.30;2271945;85;25580;-73
2022/01/24 17:28:01;;;;;;;31.37;17.05;;;;;;;7.63;42.80;101715.80;2271275;87;25564;-73
2022/01/24 17:31:24;;;;;;;30.48;18.10;;;;;;;7.64;42.76;101712.41;2271816;87;25572;-75
2022/01/24 17:34:49;;;;;;;31.48;17.70;;;;;;;7.63;42.73;101706.71;2269249;87;25564;-72
2022/01/24 17:38:15;;;;;;;32.47;17.87;;;;;;;7.62;42.67;101714.02;2240768;86;25977;-72
2022/01/24 17:41:39;;;;;;;31.05;17.52;;;;;;;7.63;42.62;101706.34;2233062;88;25890;-75
2022/01/24 17:45:05;;;;;;;31.80;18.30;;;;;;;7.63;42.58;101700.22;2233755;88;25582;-73
2022/01/24 17:48:31;;;;;;;30.25;17.65;;;;;;;7.63;42.54;101701.52;2250623;83;25660;-72
2022/01/24 17:51:51;;;;;;;31.27;18.00;;;;;;;7.61;42.51;101696.26;2284336;86;25555;-75
2022/01/24 17:55:15;;;;;;;38.03;18.77;;;;;;;7.60;42.47;101697.08;2276542;86;25723;-76
2022/01/24 17:58:35;;;;;;;32.73;16.82;;;;;;;7.58;42.46;101704.76;2246091;88;25538;-74
2022/01/24 18:01:58;;;;;;;37.23;18.77;;;;;;;7.58;42.45;101693.08;2228755;88;25600;-73
2022/01/24 18:05:21;;;;;;;30.45;17.87;;;;;;;7.58;42.43;101687.89;2210000;89;25610;-73
2022/01/24 18:08:45;;;;;;;30.20;17.98;;;;;;;7.60;42.43;101687.10;2216867;86;25569;-79
2022/01/24 18:12:07;;;;;;;34.70;17.70;;;;;;;7.58;42.41;101696.08;2244487;86;25518;-75
2022/01/24 18:15:51;;;;;;;40.08;19.77;;;;;;;7.58;42.38;101683.11;2261163;82;25629;-78
2022/01/24 18:22:41;;;;;;;34.93;19.23;;;;;;;7.58;42.40;101693.08;2416934;80;34626;-77
2022/01/24 18:26:20;;;;;;;31.42;19.02;;;;;;;7.59;42.38;101690.08;2374733;82;25496;-79
2022/01/24 18:30:18;;;;;;;35.05;18.98;;;;;;;7.58;42.37;101691.78;2312539;83;25730;-78
2022/01/24 18:33:50;;;;;;;32.93;18.32;;;;;;;7.60;42.36;101690.99;2250242;86;25650;-78
2022/01/24 18:37:26;;;;;;;37.58;19.52;;;;;;;7.57;42.37;101682.22;2253130;85;25540;-78
2022/01/24 18:40:54;;;;;;;34.20;18.48;;;;;;;7.57;42.38;101672.24;2252417;86;25561;-78
2022/01/24 18:44:23;;;;;;;37.50;20.32;;;;;;;7.58;42.37;101672.72;2248117;86;25583;-73
2022/01/24 18:48:04;;;;;;;37.45;20.65;;;;;;;7.58;42.37;101671.02;2246708;86;25677;-73
2022/01/24 18:51:35;;;;;;;42.35;20.12;;;;;;;7.58;42.37;101681.40;2276997;84;25674;-77
2022/01/24 18:55:03;;;;;;;34.98;19.37;;;;;;;7.58;42.36;101671.42;2323175;83;25736;-72
2022/01/24 18:58:32;;;;;;;36.33;20.37;;;;;;;7.57;42.37;101675.73;2337662;82;25468;-77
2022/01/24 19:02:17;;;;;;;37.00;20.10;;;;;;;7.57;42.36;101669.65;2403918;82;25491;-75
2022/01/24 19:05:43;;;;;;;37.95;19.95;;;;;;;7.60;42.38;101668.94;2369995;79;25440;-73
2022/01/24 19:09:31;;;;;;;35.85;20.55;;;;;;;7.60;42.38;101662.45;2334022;80;25417;-74
2022/01/24 19:13:17;;;;;;;39.35;21.12;;;;;;;7.60;42.39;101662.45;2372307;81;25801;-73
2022/01/24 19:16:50;;;;;;;36.05;21.15;;;;;;;7.61;42.39;101651.24;2344177;84;25483;-74
2022/01/24 19:23:44;;;;;;;35.65;20.77;;;;;;;7.62;42.40;101643.94;2355999;79;25530;-74
2022/01/24 19:27:18;;;;;;;34.85;19.48;;;;;;;7.63;42.42;101635.33;2226632;86;25548;-77
2022/01/24 19:31:21;;;;;;;38.85;21.07;;;;;;;7.64;42.44;101644.93;2241652;84;25818;-80
2022/01/24 19:34:51;;;;;;;40.88;22.55;;;;;;;7.65;42.45;101647.59;2162741;90;25603;-75
2022/01/24 19:38:18;;;;;;;43.13;21.75;;;;;;;7.65;42.46;101648.01;2155530;90;25598;-78
2022/01/24 19:41:42;;;;;;;39.80;21.00;;;;;;;7.65;42.48;101641.52;2147090;92;25594;-80
2022/01/24 19:45:09;;;;;;;37.65;21.57;;;;;;;7.65;42.50;101637.22;2147360;92;25224;-82
2022/01/24 19:48:42;;;;;;;36.90;20.95;;;;;;;7.67;42.49;101632.12;2147257;92;25756;-79
2022/01/24 19:52:11;;;;;;;32.25;18.73;;;;;;;7.67;42.52;101624.34;2127483;90;25650;-79
2022/01/24 19:55:44;;;;;;;36.95;21.23;;;;;;;7.73;45.51;101624.68;2146860;90;25646;-80
2022/01/24 19:59:21;;;;;;;40.58;20.72;;;;;;;7.87;46.28;101624.13;2257355;86;25221;-80
2022/01/24 20:03:05;;;;;;;39.70;21.77;;;;;;;7.89;45.73;101620.78;2253823;85;25625;-82
2022/01/24 20:06:50;;;;;;;37.05;21.60;;;;;;;7.87;45.61;101614.63;2190101;85;25787;-80
2022/01/24 20:10:31;;;;;;;38.73;21.93;;;;;;;7.86;45.47;101621.91;2195339;89;25658;-80
2022/01/24 20:20:53;;;;;;;37.63;21.77;;;;;;;7.83;45.20;101624.38;2198334;88;25748;-75
2022/01/24 20:24:29;;;;;;;36.17;21.50;;;;;;;7.83;45.11;101626.05;2151496;88;25603;-77
2022/01/24 20:28:13;;;;;;;40.75;22.67;;;;;;;7.83;45.04;101613.06;2180537;89;25533;-75
2022/01/24 20:31:46;;;;;;;45.55;24.00;;;;;;;7.83;44.97;101617.88;2148338;91;25736;-77
2022/01/24 20:39:14;;;;;;;43.75;22.67;;;;;;;7.90;46.49;101613.92;2176156;89;25708;-79
2022/01/24 20:43:18;;;;;;;40.40;22.52;;;;;;;7.96;46.96;101614.22;2177644;89;25552;-81